createdAt,value
2019-01-20T00:02:27.306Z,32.60
2019-01-20T00:04:58.374Z,33.70
2019-01-20T00:07:29.498Z,33.37
2019-01-20T00:10:00.604Z,31.07
2019-01-20T00:12:31.518Z,33.77
2019-01-20T00:15:02.889Z,33.33
2019-01-20T00:17:33.969Z,32.73
2019-01-20T00:20:05.772Z,33.13
2019-01-20T00:22:36.780Z,31.47
2019-01-20T00:25:08.588Z,33.20
2019-01-20T00:27:39.452Z,30.40
2019-01-20T00:30:11.821Z,30.07
2019-01-20T00:32:42.826Z,30.60
2019-01-20T00:35:15.804Z,30.23
2019-01-20T00:37:47.486Z,29.80
2019-01-20T00:40:18.608Z,29.20
2019-01-20T00:42:49.695Z,30.63
2019-01-20T00:45:20.918Z,29.83
2019-01-20T00:47:52.059Z,29.93
2019-01-20T00:50:23.512Z,29.50
2019-01-20T00:52:54.667Z,31.87
2019-01-20T00:55:26.202Z,32.80
2019-01-20T00:57:57.274Z,29.67
2019-01-20T01:00:31.764Z,29.13
2019-01-20T01:03:02.791Z,35.30
2019-01-20T01:05:33.984Z,29.77
2019-01-20T01:08:05.275Z,30.63
2019-01-20T01:10:36.411Z,33.70
2019-01-20T01:13:08.355Z,33.00
2019-01-20T01:15:39.380Z,32.67
2019-01-20T01:18:10.411Z,32.03
2019-01-20T01:20:41.948Z,30.97
2019-01-20T01:23:13.275Z,30.40
2019-01-20T01:25:45.320Z,31.73
2019-01-20T01:28:16.479Z,33.77
2019-01-20T01:30:47.655Z,35.27
2019-01-20T01:33:18.619Z,33.10
2019-01-20T01:35:49.673Z,33.67
2019-01-20T01:38:20.679Z,33.87
2019-01-20T01:40:51.691Z,31.80
2019-01-20T01:43:22.644Z,30.87
2019-01-20T01:45:53.647Z,32.27
2019-01-20T01:48:24.598Z,33.80
2019-01-20T01:50:55.542Z,34.63
2019-01-20T01:53:26.537Z,33.00
2019-01-20T01:55:57.568Z,34.20
2019-01-20T01:58:28.461Z,33.43
2019-01-20T02:00:59.653Z,32.20
2019-01-20T02:03:30.811Z,34.07
2019-01-20T02:06:02.144Z,35.17
2019-01-20T02:08:33.391Z,31.70
2019-01-20T02:11:04.783Z,35.67
2019-01-20T02:13:35.924Z,36.80
2019-01-20T02:16:07.217Z,34.37
2019-01-20T02:18:38.562Z,34.53
2019-01-20T02:21:09.677Z,35.70
2019-01-20T02:23:40.933Z,33.03
2019-01-20T02:26:11.997Z,31.67
2019-01-20T02:28:42.955Z,32.23
2019-01-20T02:31:14.019Z,32.50
2019-01-20T02:33:44.962Z,35.50
2019-01-20T02:36:16.165Z,32.37
2019-01-20T02:38:47.239Z,33.07
2019-01-20T02:41:18.358Z,32.73
2019-01-20T02:43:49.217Z,35.30
2019-01-20T02:46:20.416Z,33.20
2019-01-20T02:48:51.354Z,35.30
2019-01-20T02:51:22.241Z,31.80
2019-01-20T02:53:53.231Z,32.60
2019-01-20T02:56:24.358Z,35.70
2019-01-20T02:58:55.257Z,34.33
2019-01-20T03:01:26.367Z,34.73
2019-01-20T03:03:57.300Z,36.90
2019-01-20T03:06:28.349Z,34.23
2019-01-20T03:08:59.227Z,36.53
2019-01-20T03:11:30.151Z,36.57
2019-01-20T03:14:01.032Z,37.37
2019-01-20T03:16:32.001Z,37.40
2019-01-20T03:19:04.325Z,33.50
2019-01-20T03:21:35.283Z,38.00
2019-01-20T03:24:06.485Z,36.00
2019-01-20T03:26:37.551Z,34.87
2019-01-20T03:29:08.555Z,36.23
2019-01-20T03:31:39.466Z,34.30
2019-01-20T03:34:10.314Z,32.50
2019-01-20T03:37:00.470Z,32.60
2019-01-20T03:39:31.336Z,32.63
2019-01-20T03:42:02.319Z,33.93
2019-01-20T03:44:33.188Z,37.70
2019-01-20T03:47:05.254Z,35.57
2019-01-20T03:49:36.197Z,39.37
2019-01-20T03:52:07.341Z,37.83
2019-01-20T03:54:38.216Z,36.40
2019-01-20T03:57:09.337Z,37.70
2019-01-20T03:59:40.543Z,37.47
2019-01-20T04:02:11.809Z,39.30
2019-01-20T04:04:42.850Z,37.60
2019-01-20T04:07:13.817Z,37.30
2019-01-20T04:09:50.565Z,37.87
2019-01-20T04:12:21.739Z,37.70
2019-01-20T04:14:52.778Z,39.00
2019-01-20T04:17:24.124Z,35.60
2019-01-20T04:19:55.342Z,35.27
2019-01-20T04:22:26.301Z,38.90
2019-01-20T04:24:57.400Z,36.17
2019-01-20T04:27:28.414Z,37.17
2019-01-20T04:29:59.409Z,39.33
2019-01-20T04:32:49.699Z,38.07
2019-01-20T04:35:21.843Z,40.37
2019-01-20T04:37:52.751Z,39.57
2019-01-20T04:40:24.814Z,38.83
2019-01-20T04:42:55.805Z,36.93
2019-01-20T04:45:26.873Z,37.20
2019-01-20T04:47:57.926Z,38.70
2019-01-20T04:50:28.979Z,38.70
2019-01-20T04:53:00.206Z,39.00
2019-01-20T04:55:31.338Z,39.13
2019-01-20T04:58:02.383Z,38.60
2019-01-20T05:00:33.368Z,38.47
2019-01-20T05:03:04.380Z,37.07
2019-01-20T05:05:35.337Z,37.57
2019-01-20T05:08:06.538Z,36.80
2019-01-20T05:10:37.519Z,39.23
2019-01-20T05:13:08.510Z,39.23
2019-01-20T05:15:39.469Z,36.30
2019-01-20T05:18:10.469Z,38.30
2019-01-20T05:20:41.435Z,36.53
2019-01-20T05:23:12.406Z,37.27
2019-01-20T05:25:43.390Z,36.47
2019-01-20T05:28:14.290Z,34.40
2019-01-20T05:30:45.250Z,36.47
2019-01-20T05:33:16.209Z,36.50
2019-01-20T05:35:47.164Z,35.93
2019-01-20T05:38:18.111Z,35.27
2019-01-20T05:40:48.981Z,34.50
2019-01-20T05:43:19.900Z,33.60
2019-01-20T05:45:50.797Z,34.77
2019-01-20T05:48:21.716Z,36.03
2019-01-20T05:50:52.573Z,35.47
2019-01-20T05:53:23.638Z,34.90
2019-01-20T05:55:54.512Z,34.70
2019-01-20T05:58:26.742Z,35.57
2019-01-20T06:00:57.614Z,35.23
2019-01-20T06:03:28.511Z,36.30
2019-01-20T06:05:59.398Z,36.73
2019-01-20T06:08:30.716Z,37.23
2019-01-20T06:11:01.638Z,38.80
2019-01-20T06:13:32.590Z,37.50
2019-01-20T06:16:03.456Z,34.63
2019-01-20T06:18:34.361Z,36.80
2019-01-20T06:21:05.316Z,39.53
2019-01-20T06:23:36.202Z,38.03
2019-01-20T06:26:07.130Z,35.90
2019-01-20T06:28:39.532Z,37.87
2019-01-20T06:31:10.584Z,38.67
2019-01-20T06:33:41.760Z,37.87
2019-01-20T06:36:12.748Z,36.57
2019-01-20T06:38:43.817Z,34.63
2019-01-20T06:41:26.932Z,37.53
2019-01-20T06:43:57.860Z,36.37
2019-01-20T06:46:28.764Z,36.70
2019-01-20T06:49:19.165Z,36.97
2019-01-20T06:51:50.214Z,35.43
2019-01-20T06:54:21.132Z,36.63
2019-01-20T06:56:52.052Z,34.40
2019-01-20T06:59:24.532Z,32.67
2019-01-20T07:01:55.516Z,32.03
2019-01-20T07:04:26.536Z,34.80
2019-01-20T07:06:58.284Z,33.20
2019-01-20T07:09:29.249Z,33.80
2019-01-20T07:12:00.172Z,33.10
2019-01-20T07:14:32.841Z,34.10
2019-01-20T07:17:05.928Z,34.23
2019-01-20T07:19:39.097Z,33.63
2019-01-20T07:22:12.519Z,34.53
2019-01-20T07:24:43.637Z,31.03
2019-01-20T07:27:14.566Z,31.23
2019-01-20T07:29:45.408Z,32.90
2019-01-20T07:32:16.445Z,34.33
2019-01-20T07:34:47.344Z,31.57
2019-01-20T07:37:18.339Z,30.23
2019-01-20T07:39:49.280Z,31.20
2019-01-20T07:42:20.150Z,35.10
2019-01-20T07:44:51.122Z,31.07
2019-01-20T07:47:21.988Z,30.70
2019-01-20T07:49:52.999Z,31.93
2019-01-20T07:52:23.977Z,31.57
2019-01-20T07:54:55.422Z,32.07
2019-01-20T07:57:26.587Z,31.87
2019-01-20T07:59:57.618Z,28.40
2019-01-20T08:02:31.149Z,34.00
2019-01-20T08:05:02.192Z,31.20
2019-01-20T08:07:34.242Z,31.30
2019-01-20T08:10:08.316Z,33.53
2019-01-20T08:12:39.284Z,28.90
2019-01-20T08:15:11.842Z,33.10
2019-01-20T08:17:42.992Z,31.40
2019-01-20T08:20:17.370Z,29.20
2019-01-20T08:22:48.608Z,30.77
2019-01-20T08:25:20.533Z,28.50
2019-01-20T08:27:51.500Z,31.50
2019-01-20T08:30:26.339Z,29.70
2019-01-20T08:32:57.671Z,27.17
2019-01-20T08:35:28.682Z,29.80
2019-01-20T08:37:59.747Z,30.70
2019-01-20T08:40:34.499Z,28.27
2019-01-20T08:43:05.722Z,30.27
2019-01-20T08:46:29.063Z,30.47
2019-01-20T08:48:59.987Z,27.60
2019-01-20T08:51:31.627Z,29.50
2019-01-20T08:54:02.628Z,29.20
2019-01-20T08:56:34.839Z,30.10
2019-01-20T08:59:06.029Z,32.30
2019-01-20T09:01:37.280Z,28.63
2019-01-20T09:04:09.048Z,30.90
2019-01-20T09:06:40.524Z,27.80
2019-01-20T09:09:11.608Z,29.27
2019-01-20T09:11:43.023Z,31.97
2019-01-20T09:14:14.085Z,28.60
2019-01-20T09:16:45.205Z,29.67
2019-01-20T09:19:16.398Z,31.10
2019-01-20T09:21:47.473Z,32.27
2019-01-20T09:24:18.539Z,31.50
2019-01-20T09:26:49.681Z,32.40
2019-01-20T09:29:20.761Z,27.50
2019-01-20T09:31:51.910Z,29.57
2019-01-20T09:34:22.991Z,32.70
2019-01-20T09:36:54.022Z,29.40
2019-01-20T09:39:24.982Z,29.33
2019-01-20T09:41:55.980Z,31.40
2019-01-20T09:44:26.886Z,31.10
2019-01-20T09:46:57.858Z,30.07
2019-01-20T09:49:28.846Z,31.17
2019-01-20T09:51:59.819Z,30.90
2019-01-20T09:54:30.931Z,31.57
2019-01-20T09:57:01.917Z,32.17
2019-01-20T09:59:33.016Z,31.50
2019-01-20T10:02:04.155Z,30.77
2019-01-20T10:04:35.266Z,30.33
2019-01-20T10:07:06.713Z,30.47
2019-01-20T10:09:37.654Z,29.17
2019-01-20T10:12:08.687Z,30.20
2019-01-20T10:14:39.698Z,27.60
2019-01-20T10:17:10.712Z,26.27
2019-01-20T10:19:42.131Z,28.63
2019-01-20T10:22:13.151Z,27.73
2019-01-20T10:24:44.053Z,29.57
2019-01-20T10:27:15.045Z,29.57
2019-01-20T10:29:45.979Z,27.47
2019-01-20T10:32:17.060Z,28.73
2019-01-20T10:34:48.408Z,26.40
2019-01-20T10:37:19.754Z,27.33
2019-01-20T10:39:50.922Z,26.90
2019-01-20T10:42:22.783Z,27.37
2019-01-20T10:44:54.529Z,26.10
2019-01-20T10:47:26.563Z,25.50
2019-01-20T10:49:57.769Z,27.90
2019-01-20T10:52:31.143Z,28.43
2019-01-20T10:58:19.568Z,26.87
2019-01-20T11:00:57.141Z,26.67
2019-01-20T11:03:29.295Z,28.77
2019-01-20T11:06:06.701Z,26.70
2019-01-20T11:08:40.314Z,25.80
2019-01-20T11:11:29.591Z,28.37
2019-01-20T11:14:00.945Z,26.97
2019-01-20T11:16:32.836Z,26.67
2019-01-20T11:19:05.642Z,28.27
2019-01-20T11:21:37.918Z,27.10
2019-01-20T11:24:09.255Z,27.37
2019-01-20T11:26:40.744Z,28.33
2019-01-20T11:29:12.840Z,26.13
2019-01-20T11:31:44.070Z,26.67
2019-01-20T11:34:15.166Z,27.80
2019-01-20T11:36:46.191Z,26.57
2019-01-20T11:39:17.129Z,26.67
2019-01-20T11:41:48.092Z,26.47
2019-01-20T11:44:19.359Z,28.60
2019-01-20T11:46:50.562Z,24.73
2019-01-20T11:49:21.577Z,24.57
2019-01-20T11:51:52.819Z,26.80
2019-01-20T11:54:23.885Z,27.00
2019-01-20T11:56:55.878Z,25.20
2019-01-20T11:59:26.873Z,24.57
2019-01-20T12:01:57.826Z,24.10
2019-01-20T12:04:39.400Z,24.20
2019-01-20T12:07:10.773Z,23.87
2019-01-20T12:09:42.107Z,23.60
2019-01-20T12:12:13.402Z,23.67
2019-01-20T12:14:44.785Z,22.80
2019-01-20T12:17:16.581Z,22.83
2019-01-20T12:19:48.080Z,24.93
2019-01-20T12:22:19.460Z,24.67
2019-01-20T12:24:53.584Z,24.70
2019-01-20T12:27:32.127Z,26.00
2019-01-20T12:30:03.395Z,25.43
2019-01-20T12:32:34.358Z,24.37
2019-01-20T12:35:05.887Z,24.43
2019-01-20T12:37:38.493Z,25.43
2019-01-20T12:40:24.606Z,20.47
2019-01-20T12:42:56.771Z,22.00
2019-01-20T12:45:27.919Z,21.97
2019-01-20T12:48:00.774Z,23.00
2019-01-20T12:50:31.704Z,22.60
2019-01-20T12:53:02.645Z,23.87
2019-01-20T12:55:48.401Z,26.13
2019-01-20T12:58:19.878Z,26.33
2019-01-20T13:00:51.121Z,27.27
2019-01-20T13:03:24.518Z,26.87
2019-01-20T13:05:55.762Z,29.40
2019-01-20T13:08:26.885Z,30.20
2019-01-20T13:10:57.828Z,30.77
2019-01-20T13:13:32.021Z,33.00
2019-01-20T13:16:04.729Z,29.90
2019-01-20T13:18:36.876Z,29.37
2019-01-20T13:21:08.146Z,29.00
2019-01-20T13:23:39.409Z,30.10
2019-01-20T13:26:10.327Z,30.70
2019-01-20T13:28:41.411Z,30.77
2019-01-20T13:31:12.502Z,30.00
2019-01-20T13:33:43.406Z,26.43
2019-01-20T13:36:14.484Z,27.10
2019-01-20T13:38:45.479Z,29.40
2019-01-20T13:41:22.815Z,30.20
2019-01-20T13:43:55.677Z,29.17
2019-01-20T13:46:30.021Z,27.43
2019-01-20T13:49:01.061Z,31.53
2019-01-20T13:51:32.205Z,29.80
2019-01-20T13:54:03.379Z,30.73
2019-01-20T13:56:34.379Z,29.80
2019-01-20T13:59:05.447Z,29.30
2019-01-20T14:01:36.580Z,30.70
2019-01-20T14:04:07.681Z,30.90
2019-01-20T14:06:38.735Z,27.87
2019-01-20T14:09:10.621Z,27.73
2019-01-20T14:11:41.879Z,30.80
2019-01-20T14:14:12.877Z,33.67
2019-01-20T14:16:43.767Z,32.10
2019-01-20T14:19:21.506Z,31.40
2019-01-20T14:21:48.483Z,32.10
2019-01-20T14:24:19.562Z,32.00
2019-01-20T14:26:50.903Z,32.17
2019-01-20T14:29:21.903Z,30.40
2019-01-20T14:31:52.854Z,31.10
2019-01-20T14:34:23.865Z,30.53
2019-01-20T14:36:54.810Z,31.70
2019-01-20T14:39:25.760Z,32.30
2019-01-20T14:41:56.804Z,30.37
2019-01-20T14:44:27.703Z,33.70
2019-01-20T14:46:58.771Z,33.33
2019-01-20T14:49:30.789Z,33.43
2019-01-20T14:52:01.757Z,32.30
2019-01-20T14:54:32.948Z,30.60
2019-01-20T14:57:04.505Z,27.80
2019-01-20T14:59:35.761Z,29.73
2019-01-20T15:02:06.904Z,29.50
2019-01-20T15:04:38.072Z,29.60
2019-01-20T15:07:09.349Z,28.37
2019-01-20T15:09:40.541Z,28.53
2019-01-20T15:12:11.754Z,27.40
2019-01-20T15:14:42.888Z,27.47
2019-01-20T15:17:14.062Z,29.40
2019-01-20T15:19:45.062Z,24.97
2019-01-20T15:22:17.076Z,29.20
2019-01-20T15:24:48.070Z,31.00
2019-01-20T15:27:18.983Z,27.63
2019-01-20T15:29:50.001Z,30.03
2019-01-20T15:32:20.994Z,28.73
2019-01-20T15:34:51.996Z,29.50
2019-01-20T15:37:42.640Z,29.67
2019-01-20T15:40:15.535Z,28.90
2019-01-20T15:42:47.236Z,28.90
2019-01-20T15:45:19.862Z,29.40
2019-01-20T15:47:52.556Z,31.70
2019-01-20T15:50:29.970Z,28.47
2019-01-20T15:53:01.949Z,31.23
2019-01-20T15:55:33.217Z,28.20
2019-01-20T15:58:04.421Z,28.00
2019-01-20T16:00:35.387Z,30.23
2019-01-20T16:03:06.698Z,29.80
2019-01-20T16:05:37.618Z,29.70
2019-01-20T16:08:08.591Z,31.93
2019-01-20T16:10:39.574Z,30.10
2019-01-20T16:13:10.577Z,33.43
2019-01-20T16:15:41.556Z,31.17
2019-01-20T16:18:14.298Z,31.70
2019-01-20T16:20:45.213Z,30.87
2019-01-20T16:23:16.360Z,29.87
2019-01-20T16:25:47.494Z,31.87
2019-01-20T16:28:19.034Z,31.10
2019-01-20T16:30:52.732Z,31.87
2019-01-20T16:33:25.034Z,36.60
2019-01-20T16:35:56.158Z,31.60
2019-01-20T16:38:46.380Z,33.20
2019-01-20T16:41:17.590Z,32.23
2019-01-20T16:43:48.787Z,33.17
2019-01-20T16:46:19.929Z,33.93
2019-01-20T16:48:51.119Z,36.63
2019-01-20T16:51:25.155Z,34.43
2019-01-20T16:53:56.465Z,35.40
2019-01-20T16:56:27.842Z,34.67
2019-01-20T16:58:58.967Z,32.07
2019-01-20T17:01:30.086Z,36.10
2019-01-20T17:04:01.254Z,36.57
2019-01-20T17:06:32.744Z,34.80
2019-01-20T17:09:05.309Z,33.97
2019-01-20T17:11:36.620Z,33.07
2019-01-20T17:14:07.798Z,35.33
2019-01-20T17:16:38.915Z,34.50
2019-01-20T17:19:17.222Z,34.93
2019-01-20T17:21:42.783Z,35.63
2019-01-20T17:24:13.804Z,37.53
2019-01-20T17:26:44.766Z,36.30
2019-01-20T17:29:15.690Z,36.10
2019-01-20T17:31:46.751Z,38.00
2019-01-20T17:34:17.753Z,34.07
2019-01-20T17:36:48.740Z,35.83
2019-01-20T17:39:19.776Z,34.23
2019-01-20T17:41:50.714Z,33.47
2019-01-20T17:44:21.714Z,37.53
2019-01-20T17:46:52.720Z,34.70
2019-01-20T17:49:23.729Z,34.70
2019-01-20T17:51:58.279Z,35.17
2019-01-20T17:54:29.455Z,34.70
2019-01-20T17:57:00.501Z,33.60
2019-01-20T17:59:32.068Z,36.23
2019-01-20T18:02:07.219Z,34.97
2019-01-20T18:04:38.484Z,34.60
2019-01-20T18:07:09.713Z,34.57
2019-01-20T18:09:40.920Z,34.00
2019-01-20T18:12:11.967Z,34.00
2019-01-20T18:14:43.335Z,34.03
2019-01-20T18:17:14.209Z,36.93
2019-01-20T18:19:45.428Z,34.50
2019-01-20T18:22:16.693Z,32.13
2019-01-20T18:24:51.563Z,32.57
2019-01-20T18:27:22.617Z,33.90
2019-01-20T18:29:53.685Z,35.43
2019-01-20T18:32:24.633Z,36.70
2019-01-20T18:34:55.979Z,32.80
2019-01-20T18:37:26.991Z,35.60
2019-01-20T18:39:58.109Z,34.10
2019-01-20T18:42:31.441Z,32.80
2019-01-20T18:45:02.760Z,34.57
2019-01-20T18:47:36.535Z,32.70
2019-01-20T18:50:09.579Z,34.07
2019-01-20T18:52:43.963Z,34.23
2019-01-20T18:55:15.834Z,35.83
2019-01-20T18:57:47.339Z,34.90
2019-01-20T19:00:33.291Z,34.60
2019-01-20T19:03:04.742Z,34.30
2019-01-20T19:05:36.018Z,32.50
2019-01-20T19:08:08.134Z,36.77
2019-01-20T19:10:39.340Z,35.17
2019-01-20T19:13:10.738Z,34.90
2019-01-20T19:15:43.947Z,37.23
2019-01-20T19:18:19.153Z,33.50
2019-01-20T19:20:54.589Z,38.10
2019-01-20T19:23:25.591Z,35.70
2019-01-20T19:25:57.724Z,35.53
2019-01-20T19:28:28.982Z,34.07
2019-01-20T19:31:00.136Z,34.83
2019-01-20T19:33:33.662Z,36.83
2019-01-20T19:36:04.857Z,36.00
2019-01-20T19:38:35.834Z,39.30
2019-01-20T19:41:06.972Z,40.43
2019-01-20T19:43:38.028Z,36.93
2019-01-20T19:46:16.093Z,37.60
2019-01-20T19:48:42.738Z,37.90
2019-01-20T19:51:13.895Z,37.27
2019-01-20T19:53:44.920Z,38.40
2019-01-20T19:56:18.069Z,43.33
2019-01-20T19:59:00.324Z,38.67
2019-01-20T20:01:30.789Z,41.47
2019-01-20T20:03:59.017Z,39.20
2019-01-20T20:06:35.045Z,40.00
2019-01-20T20:09:12.714Z,41.97
2019-01-20T20:11:43.830Z,38.43
2019-01-20T20:14:14.938Z,38.40
2019-01-20T20:16:45.870Z,39.87
2019-01-20T20:19:16.813Z,40.60
2019-01-20T20:21:47.824Z,40.17
2019-01-20T20:24:25.120Z,42.40
2019-01-20T20:26:51.550Z,38.80
2019-01-20T20:29:22.515Z,39.27
2019-01-20T20:32:12.998Z,40.40
2019-01-20T20:34:44.938Z,37.17
2019-01-20T20:37:15.914Z,40.93
2019-01-20T20:39:46.865Z,36.50
2019-01-20T20:42:17.879Z,37.20
2019-01-20T20:44:48.797Z,38.17
2019-01-20T20:47:19.889Z,39.33
2019-01-20T20:49:50.913Z,34.37
2019-01-20T20:52:21.973Z,37.30
2019-01-20T20:54:53.135Z,36.50
2019-01-20T20:57:24.941Z,37.10
2019-01-20T20:59:56.165Z,33.73
2019-01-20T21:02:27.429Z,34.07
2019-01-20T21:04:58.472Z,36.37
2019-01-20T21:07:29.614Z,37.83
2019-01-20T21:10:00.734Z,35.97
2019-01-20T21:12:31.939Z,36.07
2019-01-20T21:15:03.620Z,38.60
2019-01-20T21:17:35.287Z,38.20
2019-01-20T21:20:09.995Z,36.30
2019-01-20T21:22:41.009Z,39.50
2019-01-20T21:25:12.922Z,38.93
2019-01-20T21:28:03.167Z,37.80
2019-01-20T21:30:34.664Z,34.93
2019-01-20T21:33:06.159Z,35.10
2019-01-20T21:35:37.671Z,36.63
2019-01-20T21:38:09.263Z,38.77
2019-01-20T21:40:40.592Z,36.83
2019-01-20T21:43:11.882Z,34.40
2019-01-20T21:45:43.118Z,38.30
2019-01-20T21:48:14.216Z,36.50
2019-01-20T21:50:45.513Z,38.90
2019-01-20T21:53:16.661Z,37.40
2019-01-20T21:55:49.505Z,36.97
2019-01-20T21:58:20.719Z,37.33
2019-01-20T22:00:53.457Z,37.80
2019-01-20T22:03:24.540Z,39.77
2019-01-20T22:05:55.564Z,35.70
2019-01-20T22:08:26.610Z,35.40
2019-01-20T22:10:57.615Z,35.90
2019-01-20T22:13:28.693Z,37.97
2019-01-20T22:15:59.660Z,36.63
2019-01-20T22:18:30.700Z,36.10
2019-01-20T22:21:01.801Z,35.93
2019-01-20T22:23:32.791Z,37.60
2019-01-20T22:26:06.162Z,38.67
2019-01-20T22:28:37.186Z,36.43
2019-01-20T22:31:08.258Z,37.50
2019-01-20T22:33:39.190Z,36.77
2019-01-20T22:36:10.230Z,35.67
2019-01-20T22:38:41.265Z,38.40
2019-01-20T22:41:12.254Z,37.60
2019-01-20T22:43:43.527Z,37.77
2019-01-20T22:46:14.642Z,36.43
2019-01-20T22:48:45.659Z,38.93
2019-01-20T22:51:16.745Z,36.50
2019-01-20T22:53:47.752Z,37.13
2019-01-20T22:56:19.804Z,37.77
2019-01-20T22:58:51.156Z,34.93
2019-01-20T23:01:24.242Z,35.17
2019-01-20T23:03:55.918Z,35.53
2019-01-20T23:06:27.106Z,39.07
2019-01-20T23:08:58.570Z,37.27
2019-01-20T23:11:29.688Z,35.70
2019-01-20T23:14:00.700Z,37.20
2019-01-20T23:16:32.748Z,35.20
2019-01-20T23:19:03.776Z,36.90
2019-01-20T23:21:34.695Z,38.73
2019-01-20T23:24:06.151Z,36.73
2019-01-20T23:26:37.202Z,39.63
2019-01-20T23:29:08.256Z,34.23
2019-01-20T23:31:39.322Z,39.70
2019-01-20T23:34:10.402Z,36.93
2019-01-20T23:36:41.435Z,42.50
2019-01-20T23:39:12.513Z,37.40
2019-01-20T23:41:43.720Z,36.73
2019-01-20T23:44:16.882Z,37.70
2019-01-20T23:46:47.823Z,39.40
2019-01-20T23:49:18.862Z,38.87
2019-01-20T23:51:49.859Z,37.20
2019-01-20T23:54:20.782Z,39.47
2019-01-20T23:56:51.668Z,40.07
2019-01-20T23:59:22.726Z,40.87
